createdAt,value
2022-10-19T00:00:01.579Z,70.8
2022-10-19T00:05:01.953Z,72.6
2022-10-19T00:10:06.335Z,74.2
2022-10-19T00:15:06.310Z,73.8
2022-10-19T00:20:01.616Z,75.2
2022-10-19T00:25:06.387Z,78.1
2022-10-19T00:30:01.263Z,78.8
2022-10-19T00:40:01.353Z,79.0
2022-10-19T00:45:01.349Z,83.0
2022-10-19T00:50:01.249Z,82.1
2022-10-19T00:55:01.287Z,81.2
2022-10-19T01:00:01.584Z,82.8
2022-10-19T01:05:01.372Z,85.9
2022-10-19T01:10:01.282Z,86.9
2022-10-19T01:15:01.718Z,94.2
2022-10-19T01:30:01.160Z,109.2
2022-10-19T01:35:06.026Z,122.3
2022-10-19T01:40:00.899Z,125.9
2022-10-19T01:45:01.373Z,128.2
2022-10-19T01:50:01.351Z,124.2
2022-10-19T01:55:01.081Z,121.6
2022-10-19T02:00:06.001Z,112.4
2022-10-19T02:05:06.385Z,134.5
2022-10-19T02:10:02.262Z,126.4
2022-10-19T02:15:02.109Z,124.2
2022-10-19T02:20:01.090Z,121.6
2022-10-19T02:25:01.048Z,119.1
2022-10-19T02:30:01.028Z,87.1
2022-10-19T02:35:01.491Z,87.2
2022-10-19T02:40:01.228Z,85.8
2022-10-19T02:45:01.429Z,85.6
2022-10-19T02:50:00.953Z,89.0
2022-10-19T02:55:00.956Z,91.3
2022-10-19T03:00:00.880Z,91.8
2022-10-19T03:10:00.995Z,97.9
2022-10-19T03:15:01.179Z,102.0
2022-10-19T03:20:00.838Z,106.8
2022-10-19T03:25:01.038Z,113.5
2022-10-19T03:30:01.266Z,117.7
2022-10-19T03:35:01.036Z,118.6
2022-10-19T03:40:01.003Z,117.5
2022-10-19T03:45:01.013Z,117.6
2022-10-19T03:50:01.020Z,108.9
2022-10-19T03:55:01.089Z,102.8
2022-10-19T04:00:00.942Z,93.2
2022-10-19T04:05:06.708Z,83.7
2022-10-19T04:10:01.200Z,72.6
2022-10-19T04:15:01.411Z,67.6
2022-10-19T04:20:01.361Z,63.2
2022-10-19T04:25:01.189Z,61.4
2022-10-19T04:30:01.036Z,60.7
2022-10-19T04:35:01.543Z,59.3
2022-10-19T04:40:01.120Z,59.0
2022-10-19T04:45:06.135Z,64.9
2022-10-19T04:50:01.005Z,66.0
2022-10-19T04:55:02.008Z,67.0
2022-10-19T05:05:01.246Z,70.6
2022-10-19T05:10:00.979Z,68.8
2022-10-19T05:15:01.152Z,74.0
2022-10-19T05:20:00.954Z,79.3
2022-10-19T05:25:01.119Z,83.3
2022-10-19T05:40:00.955Z,80.0
2022-10-19T05:45:01.922Z,78.1
2022-10-19T05:50:00.942Z,77.0
2022-10-19T05:55:01.114Z,80.5
2022-10-19T06:00:00.927Z,83.2
2022-10-19T06:05:01.078Z,87.2
2022-10-19T06:15:01.096Z,88.9
2022-10-19T06:40:07.369Z,68.6
2022-10-19T06:45:01.816Z,69.3
2022-10-19T06:50:01.429Z,70.4
2022-10-19T06:55:01.558Z,72.8
2022-10-19T07:00:01.614Z,71.0
2022-10-19T07:05:07.226Z,68.8
2022-10-19T07:15:01.771Z,63.3
2022-10-19T07:20:01.424Z,61.4
2022-10-19T07:25:02.797Z,68.3
2022-10-19T07:30:01.373Z,68.3
2022-10-19T07:35:02.887Z,68.7
2022-10-19T07:45:01.506Z,68.7
2022-10-19T07:50:01.375Z,62.0
2022-10-19T07:55:01.673Z,60.7
2022-10-19T08:00:01.430Z,59.7
2022-10-19T08:05:09.216Z,58.0
2022-10-19T08:10:01.702Z,67.0
2022-10-19T08:15:01.413Z,66.4
2022-10-19T08:20:01.441Z,67.1
2022-10-19T08:25:01.443Z,67.3
2022-10-19T08:40:02.521Z,62.0
2022-10-19T08:50:01.803Z,56.1
2022-10-19T08:55:01.784Z,54.9
2022-10-19T09:00:01.596Z,54.2
2022-10-19T09:05:01.670Z,52.7
2022-10-19T09:10:01.520Z,53.3
2022-10-19T09:30:01.309Z,65.6
2022-10-19T09:35:02.420Z,67.7
2022-10-19T09:50:02.112Z,64.6
2022-10-19T09:55:01.677Z,65.4
2022-10-19T10:00:01.445Z,64.3
2022-10-19T10:05:01.560Z,68.3
2022-10-19T10:10:01.735Z,69.8
2022-10-19T10:15:02.102Z,76.7
2022-10-19T10:20:02.025Z,82.8
2022-10-19T10:25:02.436Z,107.0
2022-10-19T10:30:01.823Z,134.9
2022-10-19T10:35:06.440Z,162.7
2022-10-19T10:40:05.196Z,172.2
2022-10-19T10:50:02.550Z,172.4
2022-10-19T10:55:01.575Z,146.0
2022-10-19T11:10:01.404Z,85.0
2022-10-19T11:15:01.355Z,94.9
2022-10-19T11:20:01.292Z,87.5
2022-10-19T11:25:01.370Z,92.4
2022-10-19T11:40:01.808Z,100.8
2022-10-19T11:45:02.291Z,103.0
2022-10-19T11:50:01.732Z,98.4
2022-10-19T12:20:01.042Z,69.7
2022-10-19T12:25:01.568Z,70.5
2022-10-19T12:35:02.412Z,68.1
2022-10-19T12:40:01.045Z,70.6
2022-10-19T13:20:01.701Z,82.8
2022-10-19T13:50:01.375Z,80.3
2022-10-19T13:55:01.562Z,81.3
2022-10-19T14:15:01.881Z,87.5
2022-10-19T14:30:01.627Z,73.2
2022-10-19T14:35:07.322Z,77.4
2022-10-19T14:40:01.151Z,80.3
2022-10-19T14:45:01.737Z,81.0
2022-10-19T14:50:01.254Z,81.8
2022-10-19T14:55:06.511Z,83.2
2022-10-19T15:05:07.352Z,83.9
2022-10-19T15:10:01.620Z,83.6
2022-10-19T15:15:01.241Z,84.4
2022-10-19T15:20:02.212Z,81.2
2022-10-19T15:25:01.398Z,84.1
2022-10-19T15:40:00.999Z,63.8
2022-10-19T15:45:01.031Z,63.6
2022-10-19T15:50:00.865Z,64.9
2022-10-19T15:55:01.017Z,64.5
2022-10-19T16:00:00.899Z,63.8
2022-10-19T16:20:01.841Z,67.4
2022-10-19T16:25:01.647Z,68.1
2022-10-19T16:35:06.439Z,76.7
2022-10-19T16:40:01.476Z,83.8
2022-10-19T16:45:01.463Z,93.3
2022-10-19T16:50:01.708Z,103.1
2022-10-19T16:55:01.495Z,112.4
2022-10-19T17:00:01.391Z,116.9
2022-10-19T17:05:01.527Z,116.8
2022-10-19T17:10:01.488Z,116.5
2022-10-19T17:25:02.460Z,123.8
2022-10-19T17:30:01.277Z,131.8
2022-10-19T17:35:01.381Z,146.0
2022-10-19T17:40:06.666Z,159.7
2022-10-19T17:45:01.430Z,172.8
2022-10-19T17:50:01.429Z,181.9
2022-10-19T18:10:02.573Z,215.2
2022-10-19T18:15:06.426Z,208.5
2022-10-19T18:20:01.297Z,200.9
2022-10-19T18:25:01.855Z,196.9
2022-10-19T18:30:01.751Z,199.4
2022-10-19T18:35:01.481Z,195.8
2022-10-19T18:40:01.752Z,200.0
2022-10-19T18:45:02.451Z,204.7
2022-10-19T18:50:01.445Z,207.7
2022-10-19T18:55:01.414Z,208.9
2022-10-19T19:00:01.366Z,211.2
2022-10-19T19:05:01.488Z,204.0
2022-10-19T19:10:01.684Z,210.4
2022-10-19T19:15:01.562Z,220.4
2022-10-19T19:25:06.395Z,195.9
2022-10-19T19:30:01.337Z,188.5
2022-10-19T19:35:06.417Z,174.2
2022-10-19T19:40:01.423Z,152.4
2022-10-19T19:45:01.704Z,163.6
2022-10-19T19:50:01.349Z,172.1
2022-10-19T20:00:01.273Z,203.6
2022-10-19T20:10:01.493Z,200.7
2022-10-19T20:15:01.550Z,197.0
2022-10-19T20:20:01.289Z,186.8
2022-10-19T20:25:01.450Z,173.4
2022-10-19T20:30:01.393Z,147.7
2022-10-19T20:35:01.372Z,149.2
2022-10-19T20:40:08.482Z,149.9
2022-10-19T20:45:01.442Z,146.6
2022-10-19T20:55:01.384Z,174.1
2022-10-19T21:00:01.340Z,194.8
2022-10-19T21:05:06.484Z,204.4
2022-10-19T21:10:01.402Z,205.0
2022-10-19T21:15:01.462Z,194.0
2022-10-19T21:20:01.734Z,181.6
2022-10-19T21:25:01.651Z,167.0
2022-10-19T21:30:01.310Z,151.2
2022-10-19T21:35:06.346Z,164.6
2022-10-19T21:40:01.194Z,176.5
2022-10-19T21:50:01.399Z,181.8
2022-10-19T21:55:02.526Z,177.4
2022-10-19T22:00:01.253Z,185.6
2022-10-19T22:05:02.446Z,180.0
2022-10-19T22:10:01.349Z,172.4
2022-10-19T22:15:01.309Z,187.5
2022-10-19T22:20:01.296Z,188.2
2022-10-19T22:30:01.461Z,176.4
2022-10-19T22:35:01.885Z,169.4
2022-10-19T22:40:01.225Z,156.9
2022-10-19T22:50:01.446Z,160.8
2022-10-19T22:55:01.286Z,152.6
2022-10-19T23:00:02.361Z,152.0
2022-10-19T23:05:01.400Z,160.2
2022-10-19T23:10:02.350Z,161.5
2022-10-19T23:15:01.392Z,174.1
2022-10-19T23:20:01.270Z,207.7
2022-10-19T23:25:01.845Z,250.7
2022-10-19T23:30:01.380Z,279.3
2022-10-19T23:35:01.423Z,298.9
2022-10-19T23:40:06.368Z,315.2
2022-10-19T23:45:06.431Z,313.5
2022-10-19T23:50:06.356Z,309.3
2022-10-19T23:55:02.506Z,310.1
